Altoona, Florida
Current Conditions -  °F | °C
As of 2:53 AM on Saturday 20 Dec 2014 (Local Time) from KLEE Reporting Station
Clear Clear  
Wind Chill: 55°   Ceiling: Unl
Heat Index: 55°   Visibility: 10mi
Dew Point: 52°   Wind: 5mph
Humidity: 89%   Direction: 10°N
Pressure: 30.08"   Gusts: NA
Location:  28.97°N, 81.65°W
Report Text: KLEE 200753Z AUTO 01004KT 10SM CLR 13/11 A3008 RMK AO2 SLP186 T01280111
Loading
Personal Weather Stations






























Interactive Weather Map New forecast layout! Learn more

10-Day Weather Forecast

Advertisements
Track Severe Weather on mobile